sensor_id;sensor_type;location;lat;lon;timestamp;P1;durP1;ratioP1;P2;durP2;ratioP2
84780;SDS011;75011;50.086;19.886;2024-01-15T00:00:59;9.18;;;4.03;;
84780;SDS011;75011;50.086;19.886;2024-01-15T00:04:01;9.68;;;3.53;;
84780;SDS011;75011;50.086;19.886;2024-01-15T00:07:01;8.07;;;3.92;;
84780;SDS011;75011;50.086;19.886;2024-01-15T00:10:02;9.05;;;4.10;;
84780;SDS011;75011;50.086;19.886;2024-01-15T00:13:03;8.55;;;3.85;;
84780;SDS011;75011;50.086;19.886;2024-01-15T00:16:03;9.93;;;4.10;;
84780;SDS011;75011;50.086;19.886;2024-01-15T00:19:05;6.22;;;3.65;;
84780;SDS011;75011;50.086;19.886;2024-01-15T00:22:06;8.00;;;3.72;;
84780;SDS011;75011;50.086;19.886;2024-01-15T00:25:06;8.43;;;3.90;;
84780;SDS011;75011;50.086;19.886;2024-01-15T00:28:07;7.38;;;3.45;;
84780;SDS011;75011;50.086;19.886;2024-01-15T00:31:08;7.50;;;3.88;;
84780;SDS011;75011;50.086;19.886;2024-01-15T00:34:10;8.35;;;3.42;;
84780;SDS011;75011;50.086;19.886;2024-01-15T00:37:10;9.43;;;4.32;;
84780;SDS011;75011;50.086;19.886;2024-01-15T00:40:11;7.75;;;3.38;;
84780;SDS011;75011;50.086;19.886;2024-01-15T00:43:11;10.45;;;3.80;;
84780;SDS011;75011;50.086;19.886;2024-01-15T00:46:12;8.82;;;4.65;;
84780;SDS011;75011;50.086;19.886;2024-01-15T00:49:14;7.85;;;3.75;;
84780;SDS011;75011;50.086;19.886;2024-01-15T00:52:14;9.07;;;3.78;;
84780;SDS011;75011;50.086;19.886;2024-01-15T00:55:15;8.30;;;3.92;;
84780;SDS011;75011;50.086;19.886;2024-01-15T00:58:15;7.50;;;3.83;;
84780;SDS011;75011;50.086;19.886;2024-01-15T01:01:16;8.73;;;3.70;;
84780;SDS011;75011;50.086;19.886;2024-01-15T01:04:17;7.65;;;4.05;;
84780;SDS011;75011;50.086;19.886;2024-01-15T01:07:18;8.90;;;4.47;;
84780;SDS011;75011;50.086;19.886;2024-01-15T01:10:18;7.90;;;3.63;;
84780;SDS011;75011;50.086;19.886;2024-01-15T01:13:19;8.85;;;4.22;;
84780;SDS011;75011;50.086;19.886;2024-01-15T01:16:19;10.05;;;3.70;;
84780;SDS011;75011;50.086;19.886;2024-01-15T01:19:21;8.82;;;4.35;;
84780;SDS011;75011;50.086;19.886;2024-01-15T01:22:21;9.10;;;3.63;;
84780;SDS011;75011;50.086;19.886;2024-01-15T01:25:22;7.80;;;3.80;;
84780;SDS011;75011;50.086;19.886;2024-01-15T01:28:22;8.65;;;3.90;;
84780;SDS011;75011;50.086;19.886;2024-01-15T01:31:23;7.28;;;3.58;;
84780;SDS011;75011;50.086;19.886;2024-01-15T01:34:25;8.57;;;4.03;;
84780;SDS011;75011;50.086;19.886;2024-01-15T01:37:25;8.13;;;3.92;;
84780;SDS011;75011;50.086;19.886;2024-01-15T01:40:26;8.18;;;3.47;;
84780;SDS011;75011;50.086;19.886;2024-01-15T01:43:26;8.00;;;3.72;;
84780;SDS011;75011;50.086;19.886;2024-01-15T01:46:27;6.47;;;3.70;;
84780;SDS011;75011;50.086;19.886;2024-01-15T01:49:29;7.43;;;3.75;;
84780;SDS011;75011;50.086;19.886;2024-01-15T01:52:30;8.68;;;2.60;;
84780;SDS011;75011;50.086;19.886;2024-01-15T01:55:31;5.80;;;2.97;;
84780;SDS011;75011;50.086;19.886;2024-01-15T01:58:34;6.32;;;2.50;;
84780;SDS011;75011;50.086;19.886;2024-01-15T02:01:35;6.13;;;2.70;;
84780;SDS011;75011;50.086;19.886;2024-01-15T02:04:37;5.40;;;2.33;;
84780;SDS011;75011;50.086;19.886;2024-01-15T02:07:38;4.50;;;2.53;;
84780;SDS011;75011;50.086;19.886;2024-01-15T02:10:38;6.53;;;2.58;;
84780;SDS011;75011;50.086;19.886;2024-01-15T02:13:39;4.88;;;1.90;;
84780;SDS011;75011;50.086;19.886;2024-01-15T02:16:39;7.10;;;2.78;;
84780;SDS011;75011;50.086;19.886;2024-01-15T02:19:41;5.13;;;1.90;;
84780;SDS011;75011;50.086;19.886;2024-01-15T02:22:42;5.40;;;2.42;;
84780;SDS011;75011;50.086;19.886;2024-01-15T02:25:44;3.85;;;1.52;;
84780;SDS011;75011;50.086;19.886;2024-01-15T02:28:45;6.28;;;3.17;;
84780;SDS011;75011;50.086;19.886;2024-01-15T02:31:46;4.97;;;2.03;;
84780;SDS011;75011;50.086;19.886;2024-01-15T02:34:46;6.13;;;1.67;;
84780;SDS011;75011;50.086;19.886;2024-01-15T02:37:46;3.70;;;1.63;;
84780;SDS011;75011;50.086;19.886;2024-01-15T02:40:49;4.72;;;2.55;;
84780;SDS011;75011;50.086;19.886;2024-01-15T02:43:49;5.07;;;1.77;;
84780;SDS011;75011;50.086;19.886;2024-01-15T02:46:50;4.70;;;2.03;;
84780;SDS011;75011;50.086;19.886;2024-01-15T02:49:50;4.25;;;2.05;;
84780;SDS011;75011;50.086;19.886;2024-01-15T02:52:51;4.53;;;1.85;;
84780;SDS011;75011;50.086;19.886;2024-01-15T02:55:53;3.50;;;1.77;;
84780;SDS011;75011;50.086;19.886;2024-01-15T02:58:53;4.45;;;2.13;;
84780;SDS011;75011;50.086;19.886;2024-01-15T03:01:54;5.80;;;1.98;;
84780;SDS011;75011;50.086;19.886;2024-01-15T03:04:54;3.58;;;1.35;;
84780;SDS011;75011;50.086;19.886;2024-01-15T03:07:54;4.28;;;1.85;;
84780;SDS011;75011;50.086;19.886;2024-01-15T03:10:56;4.00;;;1.98;;
84780;SDS011;75011;50.086;19.886;2024-01-15T03:13:57;3.85;;;1.92;;
84780;SDS011;75011;50.086;19.886;2024-01-15T03:16:58;3.90;;;2.10;;
84780;SDS011;75011;50.086;19.886;2024-01-15T03:19:59;4.90;;;2.15;;
84780;SDS011;75011;50.086;19.886;2024-01-15T03:23:00;3.97;;;2.05;;
84780;SDS011;75011;50.086;19.886;2024-01-15T03:26:02;3.58;;;1.13;;
84780;SDS011;75011;50.086;19.886;2024-01-15T03:29:02;4.05;;;1.63;;
84780;SDS011;75011;50.086;19.886;2024-01-15T03:32:03;2.42;;;1.00;;
84780;SDS011;75011;50.086;19.886;2024-01-15T03:35:04;4.95;;;1.65;;
84780;SDS011;75011;50.086;19.886;2024-01-15T03:38:05;3.92;;;1.95;;
84780;SDS011;75011;50.086;19.886;2024-01-15T03:41:07;3.15;;;1.55;;
84780;SDS011;75011;50.086;19.886;2024-01-15T03:44:07;3.08;;;1.33;;
84780;SDS011;75011;50.086;19.886;2024-01-15T03:47:07;3.65;;;1.30;;
84780;SDS011;75011;50.086;19.886;2024-01-15T03:50:08;4.10;;;2.03;;
84780;SDS011;75011;50.086;19.886;2024-01-15T03:53:09;4.00;;;1.65;;
84780;SDS011;75011;50.086;19.886;2024-01-15T03:56:11;3.65;;;1.58;;
84780;SDS011;75011;50.086;19.886;2024-01-15T03:59:12;3.08;;;1.15;;
84780;SDS011;75011;50.086;19.886;2024-01-15T04:02:12;3.78;;;1.67;;
84780;SDS011;75011;50.086;19.886;2024-01-15T04:05:13;2.90;;;1.00;;
84780;SDS011;75011;50.086;19.886;2024-01-15T04:08:13;3.60;;;1.67;;
84780;SDS011;75011;50.086;19.886;2024-01-15T04:11:15;3.42;;;1.52;;
84780;SDS011;75011;50.086;19.886;2024-01-15T04:14:15;3.97;;;1.10;;
84780;SDS011;75011;50.086;19.886;2024-01-15T04:17:16;4.00;;;1.40;;
84780;SDS011;75011;50.086;19.886;2024-01-15T04:20:16;3.65;;;1.92;;
84780;SDS011;75011;50.086;19.886;2024-01-15T04:23:17;3.28;;;1.25;;
84780;SDS011;75011;50.086;19.886;2024-01-15T04:26:19;2.72;;;1.30;;
84780;SDS011;75011;50.086;19.886;2024-01-15T04:29:19;4.00;;;1.10;;
84780;SDS011;75011;50.086;19.886;2024-01-15T04:32:20;3.90;;;1.30;;
84780;SDS011;75011;50.086;19.886;2024-01-15T04:35:20;2.97;;;1.23;;
84780;SDS011;75011;50.086;19.886;2024-01-15T04:38:20;3.28;;;1.42;;
84780;SDS011;75011;50.086;19.886;2024-01-15T04:41:22;3.42;;;1.85;;
84780;SDS011;75011;50.086;19.886;2024-01-15T04:44:23;4.82;;;1.90;;
84780;SDS011;75011;50.086;19.886;2024-01-15T04:47:23;3.10;;;1.23;;
84780;SDS011;75011;50.086;19.886;2024-01-15T04:50:24;2.42;;;1.33;;
84780;SDS011;75011;50.086;19.886;2024-01-15T04:53:24;3.55;;;1.23;;
84780;SDS011;75011;50.086;19.886;2024-01-15T04:56:26;3.85;;;1.45;;
84780;SDS011;75011;50.086;19.886;2024-01-15T04:59:26;4.03;;;1.13;;
84780;SDS011;75011;50.086;19.886;2024-01-15T05:02:27;4.35;;;1.38;;
84780;SDS011;75011;50.086;19.886;2024-01-15T05:05:27;3.08;;;1.50;;
84780;SDS011;75011;50.086;19.886;2024-01-15T05:08:28;3.75;;;1.23;;
84780;SDS011;75011;50.086;19.886;2024-01-15T05:11:29;3.42;;;1.20;;
84780;SDS011;75011;50.086;19.886;2024-01-15T05:14:30;2.83;;;1.13;;
84780;SDS011;75011;50.086;19.886;2024-01-15T05:17:30;4.28;;;1.42;;
84780;SDS011;75011;50.086;19.886;2024-01-15T05:20:31;3.47;;;1.10;;
84780;SDS011;75011;50.086;19.886;2024-01-15T05:23:31;4.47;;;1.73;;
84780;SDS011;75011;50.086;19.886;2024-01-15T05:26:33;3.95;;;1.70;;
84780;SDS011;75011;50.086;19.886;2024-01-15T05:29:34;4.25;;;1.80;;
84780;SDS011;75011;50.086;19.886;2024-01-15T05:32:34;4.15;;;1.35;;
84780;SDS011;75011;50.086;19.886;2024-01-15T05:35:35;5.07;;;2.03;;
84780;SDS011;75011;50.086;19.886;2024-01-15T05:38:35;5.65;;;2.55;;
84780;SDS011;75011;50.086;19.886;2024-01-15T05:41:37;3.70;;;1.80;;
84780;SDS011;75011;50.086;19.886;2024-01-15T05:44:37;3.63;;;1.45;;
84780;SDS011;75011;50.086;19.886;2024-01-15T05:47:38;3.00;;;1.25;;
84780;SDS011;75011;50.086;19.886;2024-01-15T05:50:38;2.45;;;0.90;;
84780;SDS011;75011;50.086;19.886;2024-01-15T05:53:39;5.28;;;1.70;;
84780;SDS011;75011;50.086;19.886;2024-01-15T05:56:40;2.85;;;0.90;;
84780;SDS011;75011;50.086;19.886;2024-01-15T05:59:42;4.03;;;1.83;;
84780;SDS011;75011;50.086;19.886;2024-01-15T06:02:43;3.38;;;1.33;;
84780;SDS011;75011;50.086;19.886;2024-01-15T06:05:43;3.70;;;1.40;;
84780;SDS011;75011;50.086;19.886;2024-01-15T06:08:44;2.97;;;1.23;;
84780;SDS011;75011;50.086;19.886;2024-01-15T06:11:45;3.30;;;1.27;;
84780;SDS011;75011;50.086;19.886;2024-01-15T06:14:46;4.93;;;1.52;;
84780;SDS011;75011;50.086;19.886;2024-01-15T06:17:46;3.40;;;1.73;;
84780;SDS011;75011;50.086;19.886;2024-01-15T06:20:47;4.43;;;1.52;;
84780;SDS011;75011;50.086;19.886;2024-01-15T06:23:47;3.63;;;1.63;;
84780;SDS011;75011;50.086;19.886;2024-01-15T06:26:49;3.42;;;1.60;;
84780;SDS011;75011;50.086;19.886;2024-01-15T06:29:49;3.67;;;1.75;;
84780;SDS011;75011;50.086;19.886;2024-01-15T06:32:50;3.83;;;1.48;;
84780;SDS011;75011;50.086;19.886;2024-01-15T06:35:50;3.60;;;1.58;;
84780;SDS011;75011;50.086;19.886;2024-01-15T06:38:51;3.40;;;1.65;;
84780;SDS011;75011;50.086;19.886;2024-01-15T06:41:53;3.47;;;1.42;;
84780;SDS011;75011;50.086;19.886;2024-01-15T06:44:53;3.53;;;1.20;;
84780;SDS011;75011;50.086;19.886;2024-01-15T06:47:54;4.05;;;1.88;;
84780;SDS011;75011;50.086;19.886;2024-01-15T06:50:54;4.35;;;1.50;;
84780;SDS011;75011;50.086;19.886;2024-01-15T06:53:54;4.82;;;1.83;;
84780;SDS011;75011;50.086;19.886;2024-01-15T06:56:56;4.28;;;1.48;;
84780;SDS011;75011;50.086;19.886;2024-01-15T06:59:57;7.72;;;2.10;;
84780;SDS011;75011;50.086;19.886;2024-01-15T07:02:57;6.80;;;2.38;;
84780;SDS011;75011;50.086;19.886;2024-01-15T07:05:58;5.32;;;1.83;;
84780;SDS011;75011;50.086;19.886;2024-01-15T07:08:58;4.28;;;1.83;;
84780;SDS011;75011;50.086;19.886;2024-01-15T07:12:00;5.63;;;2.38;;
84780;SDS011;75011;50.086;19.886;2024-01-15T07:15:00;6.95;;;3.15;;
84780;SDS011;75011;50.086;19.886;2024-01-15T07:18:01;5.70;;;2.78;;
84780;SDS011;75011;50.086;19.886;2024-01-15T07:21:01;6.63;;;2.65;;
84780;SDS011;75011;50.086;19.886;2024-01-15T07:24:02;5.82;;;2.40;;
84780;SDS011;75011;50.086;19.886;2024-01-15T07:27:04;5.88;;;2.10;;
84780;SDS011;75011;50.086;19.886;2024-01-15T07:30:05;5.97;;;3.13;;
84780;SDS011;75011;50.086;19.886;2024-01-15T07:33:06;8.18;;;2.78;;
84780;SDS011;75011;50.086;19.886;2024-01-15T07:36:07;6.57;;;3.05;;
84780;SDS011;75011;50.086;19.886;2024-01-15T07:39:08;5.75;;;2.78;;
84780;SDS011;75011;50.086;19.886;2024-01-15T07:42:09;7.15;;;2.55;;
84780;SDS011;75011;50.086;19.886;2024-01-15T07:45:10;6.97;;;2.30;;
84780;SDS011;75011;50.086;19.886;2024-01-15T07:48:11;7.85;;;2.92;;
84780;SDS011;75011;50.086;19.886;2024-01-15T07:51:12;6.47;;;2.83;;
84780;SDS011;75011;50.086;19.886;2024-01-15T07:54:12;4.07;;;1.80;;
84780;SDS011;75011;50.086;19.886;2024-01-15T07:57:14;6.97;;;2.88;;
84780;SDS011;75011;50.086;19.886;2024-01-15T08:00:14;7.28;;;2.92;;
84780;SDS011;75011;50.086;19.886;2024-01-15T08:03:15;6.57;;;2.20;;
84780;SDS011;75011;50.086;19.886;2024-01-15T08:06:16;6.32;;;2.90;;
84780;SDS011;75011;50.086;19.886;2024-01-15T08:09:16;5.68;;;2.67;;
84780;SDS011;75011;50.086;19.886;2024-01-15T08:12:18;6.97;;;3.05;;
84780;SDS011;75011;50.086;19.886;2024-01-15T08:15:19;6.78;;;2.83;;
84780;SDS011;75011;50.086;19.886;2024-01-15T08:18:19;6.35;;;2.63;;
84780;SDS011;75011;50.086;19.886;2024-01-15T08:21:20;6.97;;;3.10;;
84780;SDS011;75011;50.086;19.886;2024-01-15T08:24:20;7.65;;;4.03;;
84780;SDS011;75011;50.086;19.886;2024-01-15T08:27:22;6.03;;;2.95;;
84780;SDS011;75011;50.086;19.886;2024-01-15T08:30:22;7.88;;;3.42;;
84780;SDS011;75011;50.086;19.886;2024-01-15T08:33:23;6.95;;;3.95;;
84780;SDS011;75011;50.086;19.886;2024-01-15T08:36:23;7.95;;;2.85;;
84780;SDS011;75011;50.086;19.886;2024-01-15T08:39:24;7.75;;;2.63;;
84780;SDS011;75011;50.086;19.886;2024-01-15T08:42:25;6.82;;;3.53;;
84780;SDS011;75011;50.086;19.886;2024-01-15T08:45:26;5.93;;;2.50;;
84780;SDS011;75011;50.086;19.886;2024-01-15T08:48:26;6.97;;;2.80;;
84780;SDS011;75011;50.086;19.886;2024-01-15T08:51:27;4.57;;;2.50;;
84780;SDS011;75011;50.086;19.886;2024-01-15T08:54:27;5.38;;;2.35;;
84780;SDS011;75011;50.086;19.886;2024-01-15T08:57:29;4.80;;;2.67;;
84780;SDS011;75011;50.086;19.886;2024-01-15T09:00:30;6.82;;;2.85;;
84780;SDS011;75011;50.086;19.886;2024-01-15T09:03:30;5.07;;;2.30;;
84780;SDS011;75011;50.086;19.886;2024-01-15T09:06:31;7.53;;;2.70;;
84780;SDS011;75011;50.086;19.886;2024-01-15T09:09:31;5.70;;;2.90;;
84780;SDS011;75011;50.086;19.886;2024-01-15T09:12:33;6.07;;;2.53;;
84780;SDS011;75011;50.086;19.886;2024-01-15T09:15:33;5.35;;;2.33;;
84780;SDS011;75011;50.086;19.886;2024-01-15T09:18:34;7.45;;;3.13;;
84780;SDS011;75011;50.086;19.886;2024-01-15T09:21:34;4.82;;;2.25;;
84780;SDS011;75011;50.086;19.886;2024-01-15T09:24:35;8.30;;;3.55;;
84780;SDS011;75011;50.086;19.886;2024-01-15T09:27:37;5.30;;;2.30;;
84780;SDS011;75011;50.086;19.886;2024-01-15T09:30:37;6.50;;;3.03;;
84780;SDS011;75011;50.086;19.886;2024-01-15T09:33:38;7.38;;;3.35;;
84780;SDS011;75011;50.086;19.886;2024-01-15T09:36:39;5.78;;;2.70;;
84780;SDS011;75011;50.086;19.886;2024-01-15T09:39:39;9.48;;;3.78;;
84780;SDS011;75011;50.086;19.886;2024-01-15T09:42:41;9.57;;;5.40;;
84780;SDS011;75011;50.086;19.886;2024-01-15T09:45:42;7.68;;;3.58;;
84780;SDS011;75011;50.086;19.886;2024-01-15T09:48:44;9.85;;;4.18;;
84780;SDS011;75011;50.086;19.886;2024-01-15T09:51:44;7.55;;;3.65;;
84780;SDS011;75011;50.086;19.886;2024-01-15T09:54:45;8.98;;;4.88;;
84780;SDS011;75011;50.086;19.886;2024-01-15T09:57:47;9.30;;;4.30;;
84780;SDS011;75011;50.086;19.886;2024-01-15T10:00:49;9.57;;;4.07;;
84780;SDS011;75011;50.086;19.886;2024-01-15T10:03:49;9.68;;;4.82;;
84780;SDS011;75011;50.086;19.886;2024-01-15T10:06:51;5.82;;;3.40;;
84780;SDS011;75011;50.086;19.886;2024-01-15T10:09:51;11.10;;;5.15;;
84780;SDS011;75011;50.086;19.886;2024-01-15T10:12:54;10.68;;;4.70;;
84780;SDS011;75011;50.086;19.886;2024-01-15T10:15:55;10.02;;;5.43;;
84780;SDS011;75011;50.086;19.886;2024-01-15T10:18:55;10.27;;;4.50;;
84780;SDS011;75011;50.086;19.886;2024-01-15T10:21:56;12.38;;;4.95;;
84780;SDS011;75011;50.086;19.886;2024-01-15T10:24:56;10.50;;;4.60;;
84780;SDS011;75011;50.086;19.886;2024-01-15T10:28:02;12.80;;;3.88;;
84780;SDS011;75011;50.086;19.886;2024-01-15T10:31:04;8.88;;;4.47;;
84780;SDS011;75011;50.086;19.886;2024-01-15T10:34:11;9.10;;;3.65;;
84780;SDS011;75011;50.086;19.886;2024-01-15T10:37:12;10.30;;;4.70;;
84780;SDS011;75011;50.086;19.886;2024-01-15T10:40:13;11.60;;;4.97;;
84780;SDS011;75011;50.086;19.886;2024-01-15T10:43:15;8.57;;;4.57;;
84780;SDS011;75011;50.086;19.886;2024-01-15T10:46:16;7.55;;;3.30;;
84780;SDS011;75011;50.086;19.886;2024-01-15T10:49:16;7.43;;;3.47;;
84780;SDS011;75011;50.086;19.886;2024-01-15T10:52:17;10.02;;;4.57;;
84780;SDS011;75011;50.086;19.886;2024-01-15T10:55:18;8.82;;;4.22;;
84780;SDS011;75011;50.086;19.886;2024-01-15T10:58:21;8.77;;;3.90;;
84780;SDS011;75011;50.086;19.886;2024-01-15T11:01:22;9.10;;;3.63;;
84780;SDS011;75011;50.086;19.886;2024-01-15T11:04:23;9.20;;;4.20;;
84780;SDS011;75011;50.086;19.886;2024-01-15T11:07:24;12.38;;;5.50;;
84780;SDS011;75011;50.086;19.886;2024-01-15T11:10:44;11.18;;;5.35;;
84780;SDS011;75011;50.086;19.886;2024-01-15T11:13:47;12.73;;;4.30;;
84780;SDS011;75011;50.086;19.886;2024-01-15T11:16:54;9.13;;;4.18;;
84780;SDS011;75011;50.086;19.886;2024-01-15T11:19:56;10.80;;;4.50;;
84780;SDS011;75011;50.086;19.886;2024-01-15T11:22:58;8.32;;;3.92;;
84780;SDS011;75011;50.086;19.886;2024-01-15T11:25:59;10.32;;;4.97;;
84780;SDS011;75011;50.086;19.886;2024-01-15T11:29:01;7.25;;;4.10;;
84780;SDS011;75011;50.086;19.886;2024-01-15T11:32:06;9.13;;;4.55;;
84780;SDS011;75011;50.086;19.886;2024-01-15T11:35:07;10.50;;;4.70;;
84780;SDS011;75011;50.086;19.886;2024-01-15T11:38:07;9.82;;;4.18;;
84780;SDS011;75011;50.086;19.886;2024-01-15T11:41:13;10.68;;;4.75;;
84780;SDS011;75011;50.086;19.886;2024-01-15T11:44:15;10.60;;;4.57;;
84780;SDS011;75011;50.086;19.886;2024-01-15T11:47:16;11.70;;;3.90;;
84780;SDS011;75011;50.086;19.886;2024-01-15T11:50:40;10.25;;;4.82;;
84780;SDS011;75011;50.086;19.886;2024-01-15T11:53:43;9.40;;;4.28;;
84780;SDS011;75011;50.086;19.886;2024-01-15T11:56:47;11.13;;;5.60;;
84780;SDS011;75011;50.086;19.886;2024-01-15T11:59:49;9.18;;;4.65;;
84780;SDS011;75011;50.086;19.886;2024-01-15T12:02:49;10.43;;;5.15;;
84780;SDS011;75011;50.086;19.886;2024-01-15T12:05:51;7.90;;;4.22;;
84780;SDS011;75011;50.086;19.886;2024-01-15T12:08:55;7.47;;;3.58;;
84780;SDS011;75011;50.086;19.886;2024-01-15T12:12:07;9.90;;;4.82;;
84780;SDS011;75011;50.086;19.886;2024-01-15T12:15:15;10.40;;;4.90;;
84780;SDS011;75011;50.086;19.886;2024-01-15T12:18:16;8.88;;;4.03;;
84780;SDS011;75011;50.086;19.886;2024-01-15T12:21:17;8.57;;;5.07;;
84780;SDS011;75011;50.086;19.886;2024-01-15T12:24:18;10.35;;;4.25;;
84780;SDS011;75011;50.086;19.886;2024-01-15T12:27:18;9.55;;;4.60;;
84780;SDS011;75011;50.086;19.886;2024-01-15T12:30:21;10.00;;;4.45;;
84780;SDS011;75011;50.086;19.886;2024-01-15T12:33:21;10.48;;;4.32;;
84780;SDS011;75011;50.086;19.886;2024-01-15T12:36:22;10.05;;;4.43;;
84780;SDS011;75011;50.086;19.886;2024-01-15T12:39:22;12.65;;;4.75;;
84780;SDS011;75011;50.086;19.886;2024-01-15T12:42:24;9.95;;;4.97;;
84780;SDS011;75011;50.086;19.886;2024-01-15T12:45:26;11.25;;;4.50;;
84780;SDS011;75011;50.086;19.886;2024-01-15T12:48:27;8.00;;;4.18;;
84780;SDS011;75011;50.086;19.886;2024-01-15T12:51:27;8.48;;;5.05;;
84780;SDS011;75011;50.086;19.886;2024-01-15T12:54:27;8.98;;;3.95;;
84780;SDS011;75011;50.086;19.886;2024-01-15T12:57:28;12.02;;;4.97;;
84780;SDS011;75011;50.086;19.886;2024-01-15T13:00:30;9.30;;;4.43;;
84780;SDS011;75011;50.086;19.886;2024-01-15T13:03:30;9.95;;;4.88;;
84780;SDS011;75011;50.086;19.886;2024-01-15T13:06:31;8.18;;;4.47;;
84780;SDS011;75011;50.086;19.886;2024-01-15T13:09:31;10.00;;;4.47;;
84780;SDS011;75011;50.086;19.886;2024-01-15T13:12:32;12.35;;;5.25;;
84780;SDS011;75011;50.086;19.886;2024-01-15T13:15:35;10.05;;;4.10;;
84780;SDS011;75011;50.086;19.886;2024-01-15T13:18:35;7.50;;;3.58;;
84780;SDS011;75011;50.086;19.886;2024-01-15T13:21:36;11.02;;;4.95;;
84780;SDS011;75011;50.086;19.886;2024-01-15T13:24:36;9.40;;;4.20;;
84780;SDS011;75011;50.086;19.886;2024-01-15T13:27:37;16.33;;;4.93;;
84780;SDS011;75011;50.086;19.886;2024-01-15T13:30:39;10.38;;;4.97;;
84780;SDS011;75011;50.086;19.886;2024-01-15T13:33:39;11.63;;;4.55;;
84780;SDS011;75011;50.086;19.886;2024-01-15T13:36:40;8.88;;;4.22;;
84780;SDS011;75011;50.086;19.886;2024-01-15T13:39:40;11.63;;;5.55;;
84780;SDS011;75011;50.086;19.886;2024-01-15T13:42:40;9.57;;;4.63;;
84780;SDS011;75011;50.086;19.886;2024-01-15T13:45:42;7.50;;;4.68;;
84780;SDS011;75011;50.086;19.886;2024-01-15T13:48:43;9.68;;;4.95;;
84780;SDS011;75011;50.086;19.886;2024-01-15T13:51:43;10.38;;;5.20;;
84780;SDS011;75011;50.086;19.886;2024-01-15T13:54:44;8.57;;;4.15;;
84780;SDS011;75011;50.086;19.886;2024-01-15T13:57:44;7.72;;;3.40;;
84780;SDS011;75011;50.086;19.886;2024-01-15T14:00:46;9.48;;;3.88;;
84780;SDS011;75011;50.086;19.886;2024-01-15T14:03:47;9.98;;;4.43;;
84780;SDS011;75011;50.086;19.886;2024-01-15T14:06:47;9.90;;;5.05;;
84780;SDS011;75011;50.086;19.886;2024-01-15T14:09:47;9.48;;;4.13;;
84780;SDS011;75011;50.086;19.886;2024-01-15T14:12:48;12.70;;;5.07;;
84780;SDS011;75011;50.086;19.886;2024-01-15T14:15:50;10.55;;;4.97;;
84780;SDS011;75011;50.086;19.886;2024-01-15T14:18:50;13.23;;;5.55;;
84780;SDS011;75011;50.086;19.886;2024-01-15T14:21:51;10.75;;;5.20;;
84780;SDS011;75011;50.086;19.886;2024-01-15T14:24:51;9.50;;;3.42;;
84780;SDS011;75011;50.086;19.886;2024-01-15T14:27:52;11.85;;;3.75;;
84780;SDS011;75011;50.086;19.886;2024-01-15T14:30:53;10.80;;;3.55;;
84780;SDS011;75011;50.086;19.886;2024-01-15T14:33:54;5.65;;;2.80;;
84780;SDS011;75011;50.086;19.886;2024-01-15T14:36:54;8.35;;;3.05;;
84780;SDS011;75011;50.086;19.886;2024-01-15T14:39:55;7.72;;;3.00;;
84780;SDS011;75011;50.086;19.886;2024-01-15T14:42:55;8.75;;;3.75;;
84780;SDS011;75011;50.086;19.886;2024-01-15T14:45:57;9.93;;;4.60;;
84780;SDS011;75011;50.086;19.886;2024-01-15T14:48:57;10.02;;;4.68;;
84780;SDS011;75011;50.086;19.886;2024-01-15T14:51:58;10.25;;;4.50;;
84780;SDS011;75011;50.086;19.886;2024-01-15T14:54:58;8.50;;;3.80;;
84780;SDS011;75011;50.086;19.886;2024-01-15T14:57:59;10.10;;;4.25;;
84780;SDS011;75011;50.086;19.886;2024-01-15T15:01:01;8.38;;;4.40;;
84780;SDS011;75011;50.086;19.886;2024-01-15T15:04:01;10.63;;;3.85;;
84780;SDS011;75011;50.086;19.886;2024-01-15T15:07:02;8.70;;;4.45;;
84780;SDS011;75011;50.086;19.886;2024-01-15T15:10:02;8.07;;;3.97;;
84780;SDS011;75011;50.086;19.886;2024-01-15T15:13:03;8.82;;;3.78;;
84780;SDS011;75011;50.086;19.886;2024-01-15T15:16:05;9.02;;;4.43;;
84780;SDS011;75011;50.086;19.886;2024-01-15T15:19:06;10.23;;;4.22;;
84780;SDS011;75011;50.086;19.886;2024-01-15T15:22:06;10.52;;;4.60;;
84780;SDS011;75011;50.086;19.886;2024-01-15T15:25:07;10.98;;;4.78;;
84780;SDS011;75011;50.086;19.886;2024-01-15T15:28:08;10.10;;;4.50;;
84780;SDS011;75011;50.086;19.886;2024-01-15T15:31:10;7.95;;;4.43;;
84780;SDS011;75011;50.086;19.886;2024-01-15T15:34:10;9.00;;;4.32;;
84780;SDS011;75011;50.086;19.886;2024-01-15T15:37:11;9.57;;;3.65;;
84780;SDS011;75011;50.086;19.886;2024-01-15T15:40:11;11.40;;;4.47;;
84780;SDS011;75011;50.086;19.886;2024-01-15T15:43:12;9.00;;;4.85;;
84780;SDS011;75011;50.086;19.886;2024-01-15T15:46:14;8.18;;;3.92;;
84780;SDS011;75011;50.086;19.886;2024-01-15T15:49:14;9.60;;;4.53;;
84780;SDS011;75011;50.086;19.886;2024-01-15T15:52:15;9.13;;;3.50;;
84780;SDS011;75011;50.086;19.886;2024-01-15T15:55:15;11.82;;;5.72;;
84780;SDS011;75011;50.086;19.886;2024-01-15T15:58:16;13.85;;;4.30;;
84780;SDS011;75011;50.086;19.886;2024-01-15T16:01:17;11.95;;;4.63;;
84780;SDS011;75011;50.086;19.886;2024-01-15T16:04:18;8.88;;;3.05;;
84780;SDS011;75011;50.086;19.886;2024-01-15T16:07:18;8.88;;;3.33;;
84780;SDS011;75011;50.086;19.886;2024-01-15T16:10:19;10.48;;;4.80;;
84780;SDS011;75011;50.086;19.886;2024-01-15T16:13:19;7.78;;;3.47;;
84780;SDS011;75011;50.086;19.886;2024-01-15T16:16:21;13.50;;;5.25;;
84780;SDS011;75011;50.086;19.886;2024-01-15T16:19:21;8.50;;;4.13;;
84780;SDS011;75011;50.086;19.886;2024-01-15T16:22:22;10.23;;;4.57;;
84780;SDS011;75011;50.086;19.886;2024-01-15T16:25:22;10.07;;;4.03;;
84780;SDS011;75011;50.086;19.886;2024-01-15T16:28:23;10.35;;;5.20;;
84780;SDS011;75011;50.086;19.886;2024-01-15T16:31:24;9.88;;;4.30;;
84780;SDS011;75011;50.086;19.886;2024-01-15T16:34:25;9.38;;;4.28;;
84780;SDS011;75011;50.086;19.886;2024-01-15T16:37:26;11.43;;;5.57;;
84780;SDS011;75011;50.086;19.886;2024-01-15T16:40:26;12.40;;;4.47;;
84780;SDS011;75011;50.086;19.886;2024-01-15T16:43:27;9.45;;;4.40;;
84780;SDS011;75011;50.086;19.886;2024-01-15T16:46:29;13.82;;;5.50;;
84780;SDS011;75011;50.086;19.886;2024-01-15T16:49:29;10.30;;;4.18;;
84780;SDS011;75011;50.086;19.886;2024-01-15T16:52:30;11.68;;;4.90;;
84780;SDS011;75011;50.086;19.886;2024-01-15T16:55:30;10.27;;;4.55;;
84780;SDS011;75011;50.086;19.886;2024-01-15T16:58:31;7.47;;;3.47;;
84780;SDS011;75011;50.086;19.886;2024-01-15T17:01:33;9.52;;;4.00;;
84780;SDS011;75011;50.086;19.886;2024-01-15T17:04:33;8.45;;;3.75;;
84780;SDS011;75011;50.086;19.886;2024-01-15T17:07:33;9.25;;;4.25;;
84780;SDS011;75011;50.086;19.886;2024-01-15T17:10:34;10.65;;;4.20;;
84780;SDS011;75011;50.086;19.886;2024-01-15T17:13:34;11.52;;;5.07;;
84780;SDS011;75011;50.086;19.886;2024-01-15T17:16:36;10.45;;;5.00;;
84780;SDS011;75011;50.086;19.886;2024-01-15T17:19:37;9.90;;;4.47;;
84780;SDS011;75011;50.086;19.886;2024-01-15T17:22:37;9.13;;;3.33;;
84780;SDS011;75011;50.086;19.886;2024-01-15T17:25:38;8.80;;;4.32;;
84780;SDS011;75011;50.086;19.886;2024-01-15T17:28:38;10.30;;;4.55;;
84780;SDS011;75011;50.086;19.886;2024-01-15T17:31:40;10.82;;;4.20;;
84780;SDS011;75011;50.086;19.886;2024-01-15T17:34:40;7.50;;;3.50;;
84780;SDS011;75011;50.086;19.886;2024-01-15T17:37:41;8.60;;;3.95;;
84780;SDS011;75011;50.086;19.886;2024-01-15T17:40:41;8.75;;;4.32;;
84780;SDS011;75011;50.086;19.886;2024-01-15T17:43:42;9.40;;;3.78;;
84780;SDS011;75011;50.086;19.886;2024-01-15T17:46:43;7.97;;;3.40;;
84780;SDS011;75011;50.086;19.886;2024-01-15T17:49:44;9.20;;;4.00;;